KERMIT1 LFLI-LSGG
Flight info
| Callsign | KERMIT1 |
|---|---|
| Flight time | 0h 3m |
| Altitude | 8000 |
| Route | LSGG |
| Aircraft | H47/L-SDFGRY/C |
Departure
| Time | 2026-05-04 19:06 |
|---|---|
| Airport | Annemasse Airfield (LFLI) |
Arrival
| Time | 2026-05-04 19:09 |
|---|---|
| Airport | Geneva International Airport (LSGG) |
| Time | Latitude | Longitude | Altitude | Speed | Heading |
|---|---|---|---|---|---|
| 2026-05-04 19:05 | 46.23655 | 6.16681 | 1945 ft | 132 kts | 1° |
| 2026-05-04 19:06 | 46.24218 | 6.16900 | 2833 ft | 85 kts | 86° |
| 2026-05-04 19:06 | 46.23883 | 6.17815 | 2679 ft | 135 kts | 160° |
| 2026-05-04 19:06 | 46.23109 | 6.17430 | 2566 ft | 135 kts | 240° |
| 2026-05-04 19:06 | 46.22597 | 6.16262 | 2512 ft | 122 kts | 241° |
| 2026-05-04 19:07 | 46.22095 | 6.15427 | 2652 ft | 110 kts | 232° |
| 2026-05-04 19:07 | 46.21540 | 6.14657 | 2662 ft | 107 kts | 231° |
| 2026-05-04 19:07 | 46.20992 | 6.14045 | 2764 ft | 96 kts | 211° |
| 2026-05-04 19:07 | 46.20295 | 6.14107 | 2529 ft | 119 kts | 160° |
| 2026-05-04 19:08 | 46.19603 | 6.14953 | 1968 ft | 147 kts | 109° |
| 2026-05-04 19:08 | 46.19860 | 6.16113 | 1980 ft | 134 kts | 37° |
| 2026-05-04 19:08 | 46.20792 | 6.16464 | 1868 ft | 137 kts | 11° |
| 2026-05-04 19:08 | 46.21659 | 6.16488 | 2113 ft | 113 kts | 5° |
| 2026-05-04 19:09 | 46.22373 | 6.16453 | 2376 ft | 90 kts | 6° |
| 2026-05-04 19:09 | 46.22930 | 6.16440 | 2609 ft | 68 kts | 2° |
| 2026-05-04 19:09 | 46.23210 | 6.16387 | 2851 ft | 28 kts | 350° |
| 2026-05-04 19:09 | 46.23314 | 6.16161 | 2800 ft | 37 kts | 291° |
| 2026-05-04 19:10 | 46.23400 | 6.15606 | 2973 ft | 76 kts | 294° |
| 2026-05-04 19:10 | 46.23628 | 6.14639 | 2864 ft | 123 kts | 297° |
| 2026-05-04 19:10 | 46.23894 | 6.13320 | 2588 ft | 151 kts | 291° |
| 2026-05-04 19:10 | 46.24095 | 6.11760 | 2332 ft | 160 kts | 284° |
| 2026-05-04 19:11 | 46.24134 | 6.10208 | 2380 ft | 148 kts | 273° |
| 2026-05-04 19:11 | 46.24247 | 6.08853 | 2671 ft | 132 kts | 309° |
| 2026-05-04 19:11 | 46.25009 | 6.08395 | 2929 ft | 124 kts | 30° |
| 2026-05-04 19:11 | 46.25667 | 6.09178 | 3146 ft | 121 kts | 51° |
| 2026-05-04 19:12 | 46.26214 | 6.09950 | 3642 ft | 94 kts | 48° |
| 2026-05-04 19:12 | 46.26429 | 6.12293 | 2926 ft | 159 kts | 118° |
| 2026-05-04 19:12 | 46.25662 | 6.13251 | 2216 ft | 150 kts | 199° |
| 2026-05-04 19:13 | 46.24842 | 6.12446 | 1487 ft | 154 kts | 237° |
| 2026-05-04 19:13 | 46.24184 | 6.11456 | 1427 ft | 116 kts | 234° |
| 2026-05-04 19:13 | 46.23769 | 6.10851 | 1429 ft | 59 kts | 236° |
| 2026-05-04 19:13 | 46.23584 | 6.10581 | 1403 ft | 21 kts | 238° |
| 2026-05-04 19:14 | 46.23505 | 6.10451 | 1385 ft | 17 kts | 223° |
| 2026-05-04 19:14 | 46.23414 | 6.10321 | 1383 ft | 20 kts | 226° |
| 2026-05-04 19:14 | 46.23326 | 6.10180 | 1387 ft | 16 kts | 240° |
| 2026-05-04 19:14 | 46.23340 | 6.10077 | 1392 ft | 8 kts | 316° |
| 2026-05-04 19:15 | 46.23382 | 6.10018 | 1394 ft | 13 kts | 315° |
| 2026-05-04 19:15 | 46.23458 | 6.09911 | 1399 ft | 14 kts | 316° |
| 2026-05-04 19:15 | 46.23514 | 6.09912 | 1404 ft | 11 kts | 48° |
| 2026-05-04 19:15 | 46.23553 | 6.09975 | 1395 ft | 9 kts | 42° |
| 2026-05-04 19:16 | 46.23634 | 6.10088 | 1387 ft | 23 kts | 43° |
| 2026-05-04 19:16 | 46.23714 | 6.10206 | 1387 ft | 23 kts | 45° |
| 2026-05-04 19:16 | 46.23814 | 6.10355 | 1380 ft | 10 kts | 22° |
| 2026-05-04 19:16 | 46.23816 | 6.10350 | 1382 ft | 2 kts | 226° |
| 2026-05-04 19:17 | 46.23805 | 6.10320 | 1380 ft | 5 kts | 306° |
| 2026-05-04 19:17 | 46.23812 | 6.10301 | 1382 ft | 3 kts | 223° |
| 2026-05-04 19:17 | 46.23807 | 6.10288 | 1380 ft | 0 kts | 208° |
| 2026-05-04 19:17 | 46.23802 | 6.10282 | 1382 ft | 2 kts | 54° |
| 2026-05-04 19:18 | 46.23812 | 6.10294 | 1380 ft | 0 kts | 47° |